Time;durP1;ratioP1;P1;durP2;ratioP2;P2;SDS_P1;SDS_P2;PMS_P1;PMS_P2;Temp;Humidity;BMP_temperature;BMP_pressure;BME280_temperature;BME280_humidity;BME280_pressure;Samples;Min_cycle;Max_cycle;Signal;HPM_P1;HPM_P2
2022/11/05 00:09:33;;;;;;;10.13;4.10;;;;;;;10.08;100.00;100531.28;4991108;28;20559;-74
2022/11/05 00:17:32;;;;;;;8.20;3.50;;;;;;;10.11;100.00;100535.31;4991426;28;20856;-74
2022/11/05 00:19:58;;;;;;;10.87;3.57;;;;;;;10.09;100.00;100541.03;4993008;28;20468;-74
2022/11/05 00:25:24;;;;;;;7.97;3.43;;;;;;;10.02;100.00;100542.50;4913598;29;20588;-73
2022/11/05 00:27:52;;;;;;;7.60;3.43;;;;;;;10.04;100.00;100545.72;4906725;29;20464;-73
2022/11/05 00:30:22;;;;;;;10.10;4.20;;;;;;;10.05;100.00;100541.91;4948430;28;20477;-73
2022/11/05 00:32:50;;;;;;;7.70;3.30;;;;;;;9.99;100.00;100543.91;4996396;28;20493;-73
2022/11/05 00:35:18;;;;;;;11.50;4.10;;;;;;;10.00;100.00;100545.50;4994709;28;21010;-74
2022/11/05 00:37:45;;;;;;;11.00;3.93;;;;;;;9.98;100.00;100552.31;4994754;28;20476;-73
2022/11/05 00:40:13;;;;;;;13.33;4.33;;;;;;;10.00;100.00;100552.81;4992846;28;20461;-73
2022/11/05 00:45:27;;;;;;;7.73;3.27;;;;;;;9.95;100.00;100547.50;4996327;28;20556;-74
2022/11/05 00:50:38;;;;;;;9.43;3.43;;;;;;;9.93;100.00;100555.91;4993829;28;20511;-74
2022/11/05 00:53:05;;;;;;;9.63;4.27;;;;;;;9.94;100.00;100551.31;4996504;28;20526;-74
2022/11/05 00:55:34;;;;;;;11.23;3.70;;;;;;;9.93;100.00;100555.13;4997080;28;20460;-74
2022/11/05 00:58:03;;;;;;;11.60;3.90;;;;;;;9.89;100.00;100560.31;4996599;28;20449;-74
2022/11/05 01:00:33;;;;;;;12.80;3.90;;;;;;;9.94;100.00;100556.72;4996730;28;20452;-74
2022/11/05 01:03:02;;;;;;;8.03;3.80;;;;;;;9.93;100.00;100563.25;4996851;28;20453;-75
2022/11/05 01:05:29;;;;;;;8.80;4.27;;;;;;;9.92;100.00;100565.13;4996780;28;21002;-74
2022/11/05 01:07:56;;;;;;;6.63;2.90;;;;;;;9.91;100.00;100570.81;4996733;28;20503;-75
2022/11/05 01:10:24;;;;;;;8.40;3.60;;;;;;;9.85;100.00;100570.91;4996321;28;20823;-74
2022/11/05 01:12:50;;;;;;;7.33;3.53;;;;;;;9.82;100.00;100576.13;4996193;28;20488;-74
2022/11/05 01:15:18;;;;;;;7.73;3.50;;;;;;;9.85;100.00;100575.53;5033604;23;20500;-70
2022/11/05 01:17:46;;;;;;;7.40;3.10;;;;;;;9.83;100.00;100577.75;5016056;28;20452;-71
2022/11/05 01:20:13;;;;;;;9.47;3.70;;;;;;;9.89;100.00;100583.88;5016012;28;20452;-70
2022/11/05 01:22:39;;;;;;;7.80;3.67;;;;;;;9.92;100.00;100580.56;5015946;28;20467;-70
2022/11/05 01:25:07;;;;;;;7.47;2.90;;;;;;;9.89;100.00;100573.84;5015777;28;20471;-71
2022/11/05 01:27:35;;;;;;;9.30;3.57;;;;;;;9.88;100.00;100577.66;5015858;28;20448;-71
2022/11/05 01:30:02;;;;;;;8.90;3.87;;;;;;;9.89;100.00;100578.44;5015774;28;20436;-71
2022/11/05 01:32:29;;;;;;;12.60;4.20;;;;;;;9.85;100.00;100581.75;5015831;28;20527;-71
2022/11/05 01:34:57;;;;;;;11.70;4.47;;;;;;;9.83;100.00;100583.16;5015635;28;20488;-71
2022/11/05 01:37:23;;;;;;;7.80;3.47;;;;;;;9.86;100.00;100593.38;5015704;28;20462;-71
2022/11/05 01:39:50;;;;;;;17.67;4.93;;;;;;;9.84;100.00;100595.56;5015659;28;20451;-71
2022/11/05 01:42:20;;;;;;;10.90;4.47;;;;;;;9.85;100.00;100592.56;5015400;28;20444;-71
2022/11/05 01:44:56;;;;;;;10.30;4.40;;;;;;;9.81;100.00;100602.38;5015511;28;20464;-71
2022/11/05 01:47:31;;;;;;;12.00;5.13;;;;;;;9.83;100.00;100599.38;5015443;28;20444;-71
2022/11/05 01:50:01;;;;;;;12.00;4.30;;;;;;;9.82;100.00;100597.75;5015519;28;20795;-71
2022/11/05 01:52:32;;;;;;;12.17;5.50;;;;;;;9.76;100.00;100607.88;5015494;28;20437;-71
2022/11/05 01:54:59;;;;;;;8.77;4.40;;;;;;;9.73;100.00;100608.44;5015205;28;20484;-71
2022/11/05 01:57:27;;;;;;;10.80;4.70;;;;;;;9.72;100.00;100608.75;5015319;28;20440;-71
2022/11/05 01:59:57;;;;;;;8.80;3.80;;;;;;;9.65;100.00;100613.72;5015214;28;20451;-71
2022/11/05 02:02:24;;;;;;;11.57;5.03;;;;;;;9.60;100.00;100620.00;5015333;28;20424;-71
2022/11/05 02:04:54;;;;;;;7.93;3.50;;;;;;;9.63;100.00;100622.13;5015155;28;20512;-71
2022/11/05 02:07:26;;;;;;;8.20;3.33;;;;;;;9.63;100.00;100622.13;5015161;28;20876;-71
2022/11/05 02:09:58;;;;;;;13.60;5.20;;;;;;;9.62;100.00;100623.22;5015113;28;20424;-71
2022/11/05 02:12:27;;;;;;;11.00;4.23;;;;;;;9.60;100.00;100630.81;5015131;28;20771;-70
2022/11/05 02:14:54;;;;;;;9.53;3.93;;;;;;;9.54;100.00;100637.41;5014602;28;20520;-71
2022/11/05 02:17:31;;;;;;;9.37;4.60;;;;;;;9.53;100.00;100627.69;5014854;28;20456;-69
2022/11/05 02:20:17;;;;;;;9.07;3.70;;;;;;;9.47;100.00;100637.75;5015009;28;20428;-69
2022/11/05 02:23:20;;;;;;;12.20;4.10;;;;;;;9.48;100.00;100641.28;5014534;28;20969;-69
2022/11/05 02:26:10;;;;;;;12.00;5.30;;;;;;;9.45;100.00;100633.75;5014434;28;20970;-69
2022/11/05 02:29:07;;;;;;;10.40;4.10;;;;;;;9.41;100.00;100635.44;5014736;28;20428;-69
2022/11/05 02:31:42;;;;;;;9.27;4.10;;;;;;;9.38;100.00;100646.81;5014436;28;20920;-69
2022/11/05 02:34:17;;;;;;;11.70;4.40;;;;;;;9.29;100.00;100646.66;5014429;28;20494;-69
2022/11/05 02:36:47;;;;;;;8.50;4.10;;;;;;;9.29;100.00;100647.47;5014603;28;20479;-69
2022/11/05 02:39:26;;;;;;;13.27;5.03;;;;;;;9.23;100.00;100642.44;5014763;28;20447;-69
2022/11/05 02:42:05;;;;;;;10.40;4.57;;;;;;;9.23;100.00;100643.22;5014475;28;20436;-69
2022/11/05 02:44:41;;;;;;;10.77;4.60;;;;;;;9.22;100.00;100644.34;5014360;28;20464;-69
2022/11/05 02:47:15;;;;;;;10.87;4.10;;;;;;;9.22;100.00;100649.75;5014391;28;20435;-68
2022/11/05 02:49:53;;;;;;;10.57;4.50;;;;;;;9.25;100.00;100659.16;5014303;28;20436;-69
2022/11/05 02:52:25;;;;;;;10.27;4.37;;;;;;;9.24;100.00;100652.94;5014236;28;20424;-69
2022/11/05 02:54:56;;;;;;;9.50;4.40;;;;;;;9.23;100.00;100650.53;5013472;28;20491;-69
2022/11/05 02:57:23;;;;;;;10.23;4.10;;;;;;;9.20;100.00;100661.91;5014187;28;20428;-68
2022/11/05 02:59:59;;;;;;;7.90;3.60;;;;;;;9.23;100.00;100662.16;5013793;28;20842;-69
2022/11/05 03:02:27;;;;;;;7.17;3.53;;;;;;;9.19;100.00;100663.81;5014150;28;20424;-69
2022/11/05 03:04:53;;;;;;;9.43;4.13;;;;;;;9.17;100.00;100666.03;5014007;28;20460;-69
2022/11/05 03:07:35;;;;;;;9.30;3.73;;;;;;;9.24;100.00;100669.16;5013729;28;20474;-69
2022/11/05 03:10:31;;;;;;;11.13;4.43;;;;;;;9.16;100.00;100669.00;5013981;28;20463;-69
2022/11/05 03:13:07;;;;;;;7.03;3.00;;;;;;;9.16;100.00;100677.09;5007701;28;20459;-68
2022/11/05 03:15:49;;;;;;;10.13;4.00;;;;;;;9.09;100.00;100678.28;5013476;28;20494;-68
2022/11/05 03:18:22;;;;;;;8.10;3.13;;;;;;;9.11;100.00;100686.06;5013933;28;20494;-69
2022/11/05 03:20:54;;;;;;;9.27;4.00;;;;;;;9.13;100.00;100683.91;5013935;28;20428;-69
2022/11/05 03:23:27;;;;;;;10.37;3.50;;;;;;;9.10;100.00;100684.47;5013521;28;20433;-68
2022/11/05 03:25:59;;;;;;;14.30;4.40;;;;;;;9.04;100.00;100685.63;5013750;28;20428;-68
2022/11/05 03:28:29;;;;;;;10.00;3.90;;;;;;;9.04;100.00;100693.75;5013770;28;20433;-69
2022/11/05 03:30:58;;;;;;;10.03;3.80;;;;;;;8.99;100.00;100702.72;5013405;28;20434;-69
2022/11/05 03:33:30;;;;;;;10.33;3.60;;;;;;;9.01;100.00;100700.50;5013264;28;20444;-68
2022/11/05 03:36:03;;;;;;;7.93;2.73;;;;;;;8.98;100.00;100702.97;5013711;28;20837;-69
2022/11/05 03:38:35;;;;;;;9.27;3.63;;;;;;;8.96;100.00;100700.56;5013610;28;20430;-69
2022/11/05 03:41:06;;;;;;;7.40;3.27;;;;;;;8.98;100.00;100703.78;5013334;28;20796;-69
2022/11/05 03:43:37;;;;;;;9.10;3.50;;;;;;;8.99;100.00;100702.72;5013198;28;20420;-70
2022/11/05 03:46:08;;;;;;;7.10;3.23;;;;;;;8.95;100.00;100712.47;5013485;28;20435;-68
2022/11/05 03:48:41;;;;;;;10.83;3.07;;;;;;;8.91;100.00;100711.44;5013279;28;20915;-68
2022/11/05 03:51:16;;;;;;;8.00;3.10;;;;;;;8.91;100.00;100719.56;5013472;28;20425;-68
2022/11/05 03:53:46;;;;;;;10.63;2.77;;;;;;;8.81;100.00;100717.75;5013414;28;20482;-68
2022/11/05 03:56:19;;;;;;;7.50;3.07;;;;;;;8.76;100.00;100728.59;5013434;28;20801;-69
2022/11/05 03:58:47;;;;;;;6.33;2.90;;;;;;;8.68;100.00;100731.13;5013405;28;20435;-68
2022/11/05 04:01:14;;;;;;;17.00;3.00;;;;;;;8.65;100.00;100732.50;5013338;28;20459;-68
2022/11/05 04:03:42;;;;;;;9.13;3.70;;;;;;;8.66;100.00;100731.41;5013325;28;20499;-68
2022/11/05 04:14:33;;;;;;;9.50;3.40;;;;;;;8.60;100.00;100740.66;5009404;28;21021;-69
2022/11/05 04:17:06;;;;;;;10.60;4.03;;;;;;;8.60;100.00;100740.66;5016838;28;20986;-69
2022/11/05 04:25:01;;;;;;;9.03;2.83;;;;;;;8.48;100.00;100754.50;5016762;28;20447;-70
2022/11/05 04:27:28;;;;;;;9.17;3.60;;;;;;;8.47;100.00;100760.19;5017126;28;20467;-76
2022/11/05 04:32:39;;;;;;;7.10;2.60;;;;;;;8.40;100.00;100771.31;5016761;28;20407;-71
2022/11/05 04:35:07;;;;;;;9.80;3.40;;;;;;;8.45;100.00;100773.16;5016678;28;20496;-71
2022/11/05 04:37:33;;;;;;;7.03;2.30;;;;;;;8.45;100.00;100771.25;5016803;28;20447;-71
2022/11/05 04:39:59;;;;;;;10.03;4.50;;;;;;;8.48;100.00;100775.28;5016818;28;20444;-71
2022/11/05 04:42:28;;;;;;;9.70;2.83;;;;;;;8.45;100.00;100773.16;5016748;28;20816;-71
2022/11/05 04:44:54;;;;;;;11.60;3.57;;;;;;;8.48;100.00;100769.91;5016481;28;20574;-71
2022/11/05 04:47:20;;;;;;;8.40;3.33;;;;;;;8.45;100.00;100771.25;5016673;28;20444;-70
2022/11/05 04:49:47;;;;;;;8.00;3.20;;;;;;;8.46;100.00;100764.00;5016561;28;20494;-71
2022/11/05 04:52:16;;;;;;;9.63;3.10;;;;;;;8.44;100.00;100768.84;5016547;28;20874;-71
2022/11/05 04:54:43;;;;;;;12.03;4.00;;;;;;;8.37;100.00;100781.84;5016376;28;20479;-70
2022/11/05 04:57:09;;;;;;;11.70;3.40;;;;;;;8.35;100.00;100772.13;5016445;28;20454;-70
2022/11/05 04:59:36;;;;;;;7.23;3.37;;;;;;;8.25;100.00;100777.59;5016410;28;20502;-71
2022/11/05 05:02:02;;;;;;;12.30;3.60;;;;;;;8.21;100.00;100775.75;5016301;28;20846;-71
2022/11/05 05:04:28;;;;;;;11.30;2.87;;;;;;;8.22;100.00;100770.06;5016283;28;20514;-71
2022/11/05 05:06:56;;;;;;;9.40;3.30;;;;;;;8.20;100.00;100784.94;5016244;28;20444;-71
2022/11/05 05:09:24;;;;;;;7.73;3.77;;;;;;;8.21;100.00;100783.84;5016174;28;20827;-71
2022/11/05 05:11:50;;;;;;;9.93;3.30;;;;;;;8.20;100.00;100783.03;5015841;28;20956;-71
2022/11/05 05:14:16;;;;;;;8.60;3.83;;;;;;;8.23;100.00;100782.44;5015713;28;20541;-69
2022/11/05 05:16:43;;;;;;;11.50;3.07;;;;;;;8.22;100.00;100783.53;5015470;28;20502;-72
2022/11/05 05:19:09;;;;;;;6.73;3.20;;;;;;;8.22;100.00;100791.63;5016021;28;20440;-71
2022/11/05 05:21:37;;;;;;;11.43;3.17;;;;;;;8.20;100.00;100793.03;5015901;28;20443;-70
2022/11/05 05:24:07;;;;;;;8.47;3.50;;;;;;;8.17;100.00;100802.47;5015812;28;20468;-71
2022/11/05 05:26:35;;;;;;;7.77;2.83;;;;;;;8.19;100.00;100797.63;5015783;28;20448;-71
2022/11/05 05:29:02;;;;;;;7.57;2.90;;;;;;;8.11;100.00;100800.91;5015608;28;20966;-71
2022/11/05 05:31:28;;;;;;;7.00;3.03;;;;;;;8.09;100.00;100792.25;5015872;28;20448;-70
2022/11/05 05:33:55;;;;;;;9.70;3.37;;;;;;;8.10;100.00;100799.25;5015630;28;20467;-71
2022/11/05 05:36:22;;;;;;;15.30;3.17;;;;;;;8.01;100.00;100809.84;5015745;28;20462;-71
2022/11/05 05:38:49;;;;;;;8.70;3.13;;;;;;;7.95;100.00;100807.44;5015649;28;20461;-70
2022/11/05 05:41:16;;;;;;;7.20;2.87;;;;;;;7.96;100.00;100814.44;5015574;28;20444;-71
2022/11/05 05:43:44;;;;;;;7.93;3.27;;;;;;;7.98;100.00;100817.69;5015581;28;20452;-70
2022/11/05 05:46:12;;;;;;;7.10;2.50;;;;;;;7.96;100.00;100817.16;5015478;28;20444;-71
2022/11/05 05:48:39;;;;;;;7.43;2.90;;;;;;;8.01;100.00;100819.81;5015473;28;20838;-71
2022/11/05 05:51:08;;;;;;;9.57;3.90;;;;;;;8.00;100.00;100818.22;5015460;28;20471;-70
2022/11/05 05:53:35;;;;;;;8.07;2.70;;;;;;;7.93;100.00;100828.50;5015282;28;20444;-69
2022/11/05 05:56:02;;;;;;;8.50;3.23;;;;;;;7.99;100.00;100822.00;5015198;28;20479;-71
2022/11/05 05:58:31;;;;;;;9.80;3.13;;;;;;;7.99;100.00;100835.47;5015319;28;20444;-71
2022/11/05 06:01:02;;;;;;;9.10;3.63;;;;;;;8.02;100.00;100840.34;5015251;28;20452;-70
2022/11/05 06:03:29;;;;;;;7.70;3.27;;;;;;;7.98;100.00;100850.88;5015063;28;20428;-70
2022/11/05 06:05:59;;;;;;;12.57;2.57;;;;;;;8.00;100.00;100861.38;5015117;28;20455;-70
2022/11/05 06:08:26;;;;;;;9.00;3.00;;;;;;;8.01;100.00;100854.88;5015092;28;20762;-70
2022/11/05 06:10:52;;;;;;;6.77;2.40;;;;;;;7.88;100.00;100860.88;5015040;28;20456;-70
2022/11/05 06:13:19;;;;;;;10.77;3.60;;;;;;;7.90;100.00;100856.03;5014976;28;20440;-76
2022/11/05 06:15:45;;;;;;;12.83;2.63;;;;;;;7.93;100.00;100863.56;5014483;28;20503;-71
2022/11/05 06:18:13;;;;;;;7.07;2.40;;;;;;;7.89;100.00;100873.31;5014935;28;20624;-70
2022/11/05 06:20:39;;;;;;;6.53;2.77;;;;;;;7.89;100.00;100873.31;5014877;28;20858;-70
2022/11/05 06:23:06;;;;;;;8.73;3.20;;;;;;;8.00;100.00;100877.56;5014732;28;20440;-71
2022/11/05 06:25:32;;;;;;;6.20;2.10;;;;;;;8.00;100.00;100881.06;5014640;28;20474;-71
2022/11/05 06:27:59;;;;;;;8.10;2.13;;;;;;;8.01;100.00;100888.09;5013987;28;20440;-71
2022/11/05 06:30:26;;;;;;;10.90;2.77;;;;;;;7.97;100.00;100899.66;5014347;28;20448;-70
2022/11/05 06:32:52;;;;;;;7.40;2.73;;;;;;;7.97;100.00;100902.38;5014701;28;20444;-70
2022/11/05 06:35:20;;;;;;;7.07;2.60;;;;;;;8.00;100.00;100908.03;5014420;28;20564;-71
2022/11/05 06:37:46;;;;;;;10.40;3.70;;;;;;;7.92;100.00;100911.28;5014719;28;20452;-71
2022/11/05 06:40:13;;;;;;;18.20;4.43;;;;;;;7.98;100.00;100909.41;5014476;28;20455;-69
2022/11/05 06:42:39;;;;;;;11.20;3.63;;;;;;;8.02;100.00;100911.28;5014086;28;20826;-71
2022/11/05 06:45:07;;;;;;;10.50;3.37;;;;;;;8.08;100.00;100918.25;5014329;28;20456;-70
2022/11/05 06:47:34;;;;;;;11.23;4.10;;;;;;;8.13;100.00;100916.63;5014315;28;20447;-71
2022/11/05 06:50:00;;;;;;;10.20;2.83;;;;;;;8.11;100.00;100922.31;5014371;28;20490;-70
2022/11/05 06:52:30;;;;;;;10.73;3.10;;;;;;;8.20;100.00;100914.44;5014240;28;20863;-70
2022/11/05 06:54:56;;;;;;;10.40;2.60;;;;;;;8.18;100.00;100930.88;5014066;28;20492;-71
2022/11/05 06:57:22;;;;;;;6.57;2.43;;;;;;;8.23;100.00;100930.06;5013883;28;20451;-71
2022/11/05 06:59:49;;;;;;;9.47;3.80;;;;;;;8.15;100.00;100925.25;5014181;28;20448;-71
2022/11/05 07:02:17;;;;;;;7.73;3.67;;;;;;;8.11;100.00;100927.69;5014152;28;20452;-70
2022/11/05 07:04:43;;;;;;;7.87;2.00;;;;;;;8.17;100.00;100939.28;5013949;28;20459;-69
2022/11/05 07:07:10;;;;;;;9.23;3.13;;;;;;;8.17;100.00;100937.38;5014047;28;20440;-69
2022/11/05 07:09:41;;;;;;;7.70;2.73;;;;;;;8.18;100.00;100933.59;5013933;28;20475;-70
2022/11/05 07:12:07;;;;;;;7.50;2.83;;;;;;;8.20;100.00;100944.94;5014203;28;20432;-71
2022/11/05 07:14:34;;;;;;;6.13;2.60;;;;;;;8.24;100.00;100947.88;5013486;28;20618;-73
2022/11/05 07:17:00;;;;;;;9.03;2.77;;;;;;;8.27;100.00;100958.09;5023056;23;20864;-70
2022/11/05 07:19:27;;;;;;;12.07;2.97;;;;;;;8.32;100.00;100971.56;4996906;28;20828;-69
2022/11/05 07:21:53;;;;;;;8.07;2.10;;;;;;;8.29;100.00;100970.25;4994396;28;20441;-69
2022/11/05 07:24:20;;;;;;;7.80;2.67;;;;;;;8.28;100.00;100965.94;4993758;28;21162;-69
2022/11/05 07:26:47;;;;;;;14.60;3.00;;;;;;;8.31;100.00;100973.47;4994262;28;20461;-69
2022/11/05 07:29:14;;;;;;;9.73;2.80;;;;;;;8.33;100.00;100967.81;4992972;28;20941;-69
2022/11/05 07:31:40;;;;;;;6.27;2.47;;;;;;;8.28;100.00;100971.34;4989167;28;20471;-69
2022/11/05 07:34:07;;;;;;;9.93;2.83;;;;;;;8.25;100.00;100971.88;4992007;28;20481;-70
2022/11/05 07:36:33;;;;;;;14.77;2.73;;;;;;;8.27;100.00;100975.09;4993955;28;20488;-69
2022/11/05 07:38:59;;;;;;;7.70;3.13;;;;;;;8.26;100.00;100981.59;4992736;28;20488;-69
2022/11/05 07:41:26;;;;;;;8.67;2.90;;;;;;;8.30;100.00;101001.56;4994144;28;20453;-69
2022/11/05 07:43:54;;;;;;;11.80;3.33;;;;;;;8.29;100.00;100999.13;4993049;28;20469;-69
2022/11/05 07:46:20;;;;;;;11.93;2.80;;;;;;;8.22;100.00;100996.72;4994027;28;20527;-69
2022/11/05 07:48:47;;;;;;;7.20;2.50;;;;;;;8.26;100.00;101000.47;4991824;28;20465;-69
2022/11/05 07:51:13;;;;;;;6.50;2.40;;;;;;;8.30;100.00;101001.56;4993580;28;20452;-68
2022/11/05 07:53:40;;;;;;;9.03;3.77;;;;;;;8.33;100.00;100995.63;4993114;28;20460;-69
2022/11/05 07:56:07;;;;;;;8.33;2.83;;;;;;;8.32;100.00;100994.00;4993713;28;20485;-69
2022/11/05 07:58:35;;;;;;;10.30;2.60;;;;;;;8.34;100.00;100981.03;4993254;28;20528;-69
2022/11/05 08:01:03;;;;;;;8.23;3.00;;;;;;;8.38;100.00;100989.41;4992961;28;20957;-69
2022/11/05 08:03:29;;;;;;;14.00;3.13;;;;;;;8.29;100.00;100988.34;4992124;28;20465;-68
2022/11/05 08:05:56;;;;;;;6.40;2.47;;;;;;;8.34;100.00;100991.81;4993173;28;20480;-69
2022/11/05 08:08:22;;;;;;;11.97;3.30;;;;;;;8.40;100.00;100994.53;4991021;28;21018;-68
2022/11/05 08:10:49;;;;;;;7.90;2.73;;;;;;;8.32;100.00;100994.00;4974660;28;20500;-68
2022/11/05 08:13:15;;;;;;;7.27;2.67;;;;;;;8.36;100.00;100999.63;4975087;28;20520;-70
2022/11/05 08:15:42;;;;;;;6.00;2.77;;;;;;;8.41;100.00;101001.53;4976061;28;20872;-68
2022/11/05 08:18:12;;;;;;;9.77;3.20;;;;;;;8.46;100.00;101001.53;4973975;28;20434;-70
2022/11/05 08:20:40;;;;;;;7.40;2.77;;;;;;;8.47;100.00;101008.53;4993947;28;20449;-69
2022/11/05 08:23:06;;;;;;;8.83;2.83;;;;;;;8.56;100.00;101015.78;4992910;28;20437;-69
2022/11/05 08:25:33;;;;;;;8.47;2.83;;;;;;;8.58;100.00;101008.22;4986966;28;20484;-70
2022/11/05 08:28:01;;;;;;;12.03;2.87;;;;;;;8.47;100.00;101017.44;4993814;28;20521;-70
2022/11/05 08:30:29;;;;;;;8.43;3.17;;;;;;;8.49;100.00;101019.88;4980642;28;20812;-68
2022/11/05 08:32:57;;;;;;;7.90;3.43;;;;;;;8.55;100.00;101022.28;4986483;28;20457;-71
2022/11/05 08:35:25;;;;;;;10.63;3.40;;;;;;;8.66;100.00;101024.94;4990762;28;20480;-73
2022/11/05 08:37:56;;;;;;;8.47;2.87;;;;;;;8.72;100.00;101032.75;4975143;28;20898;-73
2022/11/05 08:40:22;;;;;;;10.13;2.40;;;;;;;8.80;100.00;101031.34;4974242;28;20436;-73
2022/11/05 08:42:49;;;;;;;11.13;3.40;;;;;;;8.86;100.00;101037.53;4974267;28;20496;-74
2022/11/05 08:45:15;;;;;;;15.93;3.20;;;;;;;8.92;100.00;101049.94;4973916;28;20857;-73
2022/11/05 08:47:41;;;;;;;11.53;2.70;;;;;;;8.96;100.00;101048.28;4974185;28;20446;-74
2022/11/05 08:50:09;;;;;;;9.67;2.93;;;;;;;8.96;100.00;101045.59;4974074;28;20449;-71
2022/11/05 08:52:39;;;;;;;10.73;3.10;;;;;;;9.03;100.00;101054.16;4976123;28;20453;-72
2022/11/05 08:55:06;;;;;;;7.70;2.63;;;;;;;9.07;100.00;101057.94;4977417;28;20448;-71
2022/11/05 08:57:33;;;;;;;8.00;2.90;;;;;;;9.14;100.00;101053.03;4977440;28;20442;-71
2022/11/05 08:59:59;;;;;;;6.07;2.40;;;;;;;9.19;100.00;101050.31;4977441;28;20442;-71
2022/11/05 09:02:26;;;;;;;8.10;3.27;;;;;;;9.27;100.00;101057.00;4977186;28;20797;-71
2022/11/05 09:04:52;;;;;;;11.27;2.70;;;;;;;9.30;100.00;101054.56;4977420;28;20453;-71
2022/11/05 09:07:21;;;;;;;6.50;2.67;;;;;;;9.38;100.00;101053.13;4977310;28;20461;-71
2022/11/05 09:09:49;;;;;;;8.30;2.70;;;;;;;9.44;100.00;101053.94;4977353;28;20453;-71
2022/11/05 09:12:15;;;;;;;5.50;1.80;;;;;;;9.49;100.00;101062.00;4977147;28;20445;-71
2022/11/05 09:14:42;;;;;;;6.93;2.23;;;;;;;9.59;100.00;101068.13;4977230;28;20446;-75
2022/11/05 09:17:16;;;;;;;7.50;2.63;;;;;;;9.66;100.00;101073.22;4976839;28;20501;-73
2022/11/05 09:19:42;;;;;;;9.50;2.13;;;;;;;9.71;100.00;101081.31;4977129;28;20501;-71
2022/11/05 09:22:11;;;;;;;9.80;3.17;;;;;;;9.62;100.00;101083.00;4976960;28;20446;-71
2022/11/05 09:24:38;;;;;;;7.57;2.77;;;;;;;9.70;100.00;101081.59;4976778;28;20904;-71
2022/11/05 09:27:06;;;;;;;16.73;2.60;;;;;;;9.77;100.00;101092.88;4976863;28;20462;-72
2022/11/05 09:29:32;;;;;;;5.20;1.50;;;;;;;9.81;100.00;101088.53;4976624;28;20813;-71
2022/11/05 09:31:59;;;;;;;7.33;2.33;;;;;;;9.82;100.00;101093.63;4976930;28;20446;-71
2022/11/05 09:34:25;;;;;;;9.70;1.90;;;;;;;9.94;100.00;101097.88;4976556;28;21027;-71
2022/11/05 09:36:51;;;;;;;6.93;2.40;;;;;;;9.97;100.00;101103.53;4976583;28;20493;-71
2022/11/05 09:39:18;;;;;;;5.33;1.60;;;;;;;9.98;100.00;101098.94;4976843;28;20450;-72
2022/11/05 09:41:46;;;;;;;7.60;1.80;;;;;;;10.00;100.00;101099.44;4976343;28;20458;-72
2022/11/05 09:44:18;;;;;;;5.67;1.90;;;;;;;10.05;99.95;101100.22;4976564;28;20457;-73
2022/11/05 09:46:49;;;;;;;6.40;2.10;;;;;;;10.04;100.00;101111.31;4976586;28;20517;-72
2022/11/05 09:49:25;;;;;;;4.23;1.27;;;;;;;10.16;100.00;101111.75;4976901;28;20453;-73
2022/11/05 09:51:53;;;;;;;5.73;1.80;;;;;;;10.28;99.09;101119.53;4991022;28;20453;-72
2022/11/05 09:54:23;;;;;;;7.00;2.07;;;;;;;10.27;97.72;101113.31;4993422;28;20453;-72
2022/11/05 09:56:49;;;;;;;11.70;2.00;;;;;;;10.32;97.47;101126.00;4994243;28;21010;-72
2022/11/05 09:59:21;;;;;;;6.90;2.20;;;;;;;10.37;97.91;101117.03;4995862;28;20876;-72
2022/11/05 10:01:48;;;;;;;5.67;1.70;;;;;;;10.48;98.36;101119.31;4994651;28;20464;-72
2022/11/05 10:04:19;;;;;;;5.13;1.33;;;;;;;10.52;96.61;101114.13;4989265;28;20466;-72
2022/11/05 10:06:56;;;;;;;7.20;2.20;;;;;;;10.62;95.38;101124.84;4989057;28;20480;-72
2022/11/05 10:09:27;;;;;;;8.03;1.50;;;;;;;10.71;95.07;101114.19;4995251;28;20460;-72
2022/11/05 10:11:58;;;;;;;8.67;1.83;;;;;;;10.82;95.18;101110.28;4995761;28;20433;-72
2022/11/05 10:14:30;;;;;;;5.10;1.60;;;;;;;10.92;94.28;101112.06;4994290;28;20464;-72
2022/11/05 10:17:00;;;;;;;5.17;1.77;;;;;;;10.96;95.07;101119.31;4989184;28;20552;-72
2022/11/05 10:19:36;;;;;;;9.53;1.90;;;;;;;11.06;95.78;101124.59;4976008;28;20430;-72
2022/11/05 10:22:10;;;;;;;9.60;1.80;;;;;;;11.14;94.08;101125.88;4984344;28;20971;-72
2022/11/05 10:24:40;;;;;;;5.93;2.13;;;;;;;11.20;93.77;101132.00;4995431;28;20429;-72
2022/11/05 10:27:07;;;;;;;6.10;1.60;;;;;;;11.26;92.38;101130.88;4992254;28;20477;-72
2022/11/05 10:29:35;;;;;;;4.70;1.43;;;;;;;11.28;92.16;101121.31;4995257;28;20437;-72
2022/11/05 10:32:06;;;;;;;8.80;1.43;;;;;;;11.34;91.68;101124.78;4994126;28;20465;-72
2022/11/05 10:34:35;;;;;;;5.47;1.73;;;;;;;11.32;91.71;101127.78;4994969;28;20916;-72
2022/11/05 10:37:02;;;;;;;7.33;1.33;;;;;;;11.48;90.22;101130.28;4991505;28;20500;-72
2022/11/05 10:39:31;;;;;;;6.40;1.17;;;;;;;11.58;88.16;101120.09;4985524;28;20461;-72
2022/11/05 10:42:13;;;;;;;5.83;1.47;;;;;;;11.71;87.88;101129.38;4975644;28;20442;-72
2022/11/05 10:44:46;;;;;;;5.50;1.37;;;;;;;11.84;88.65;101142.25;4975654;28;20843;-72
2022/11/05 10:47:35;;;;;;;4.80;1.13;;;;;;;11.99;87.04;101140.38;4977813;28;20481;-72
2022/11/05 10:50:03;;;;;;;4.80;1.30;;;;;;;12.16;86.51;101143.34;4994857;28;20503;-72
2022/11/05 10:52:36;;;;;;;6.70;1.60;;;;;;;12.30;85.54;101143.38;4993885;28;20887;-72
2022/11/05 10:55:07;;;;;;;16.33;1.23;;;;;;;12.30;83.58;101143.38;4994469;28;20472;-72
2022/11/05 10:57:36;;;;;;;4.93;1.23;;;;;;;12.41;83.07;101152.19;4988401;28;20478;-72
2022/11/05 11:00:27;;;;;;;6.80;1.67;;;;;;;12.55;81.64;101151.06;4978903;28;20458;-72
2022/11/05 11:02:56;;;;;;;4.20;0.67;;;;;;;13.15;80.08;101152.91;4975271;28;20448;-72
2022/11/05 11:05:25;;;;;;;11.60;1.57;;;;;;;13.96;76.56;101153.00;4983921;28;20994;-72
2022/11/05 11:07:59;;;;;;;7.90;1.27;;;;;;;14.80;74.03;101163.09;4994317;28;20448;-72
2022/11/05 11:10:26;;;;;;;6.77;0.83;;;;;;;15.55;69.22;101165.84;4992321;28;20956;-73
2022/11/05 11:12:54;;;;;;;10.13;1.67;;;;;;;16.22;65.36;101170.81;4990130;28;20453;-71
2022/11/05 11:15:26;;;;;;;5.40;1.13;;;;;;;17.00;61.44;101177.97;4988636;28;20535;-72
2022/11/05 11:17:53;;;;;;;4.30;1.37;;;;;;;17.76;59.17;101171.56;4976895;28;20513;-72
2022/11/05 11:20:25;;;;;;;6.70;1.43;;;;;;;18.40;56.40;101180.13;4991982;28;20465;-72
2022/11/05 11:23:00;;;;;;;14.63;1.73;;;;;;;18.52;55.21;101170.31;4994147;28;20437;-72
2022/11/05 11:25:29;;;;;;;3.60;0.80;;;;;;;18.93;53.98;101169.34;4990919;28;20483;-73
2022/11/05 11:28:01;;;;;;;4.40;0.93;;;;;;;19.36;52.44;101182.50;4993075;28;20504;-73
2022/11/05 11:30:29;;;;;;;3.50;0.70;;;;;;;19.63;52.92;101172.72;4987317;28;20454;-72
2022/11/05 11:32:59;;;;;;;4.13;0.90;;;;;;;19.96;50.93;101176.38;4974785;28;20445;-72
2022/11/05 11:35:26;;;;;;;3.77;0.87;;;;;;;20.29;49.20;101179.69;4981224;28;21038;-72
2022/11/05 11:37:55;;;;;;;4.73;1.00;;;;;;;19.42;49.03;101178.34;4974437;28;21000;-72
2022/11/05 11:40:28;;;;;;;3.93;1.10;;;;;;;19.25;49.40;101191.53;4974532;28;20825;-72
2022/11/05 11:42:57;;;;;;;3.77;0.60;;;;;;;19.07;50.93;101185.47;4985282;28;21027;-72
2022/11/05 11:45:29;;;;;;;3.60;0.70;;;;;;;19.46;51.01;101181.22;4991098;28;20890;-71
2022/11/05 11:47:57;;;;;;;3.67;0.73;;;;;;;19.53;48.57;101189.69;4992085;28;20457;-71
2022/11/05 11:50:36;;;;;;;7.53;1.23;;;;;;;19.84;49.82;101169.81;4993688;28;20536;-71
2022/11/05 11:53:33;;;;;;;6.00;0.70;;;;;;;20.19;48.07;101180.19;4982535;28;20448;-72
2022/11/05 11:56:05;;;;;;;4.77;0.97;;;;;;;19.73;48.38;101182.44;4970204;28;20992;-71
2022/11/05 11:58:41;;;;;;;9.47;1.20;;;;;;;20.01;48.44;101189.88;4993424;28;20994;-71
2022/11/05 12:01:33;;;;;;;4.93;0.97;;;;;;;19.79;48.61;101189.31;4977732;28;21014;-71
2022/11/05 12:04:14;;;;;;;8.43;1.03;;;;;;;19.63;49.80;101182.94;4992352;28;20472;-71
2022/11/05 12:06:49;;;;;;;8.53;1.70;;;;;;;19.98;48.10;101196.09;4992527;28;20461;-72
2022/11/05 12:09:25;;;;;;;5.70;1.20;;;;;;;20.23;47.71;101186.59;4991461;28;20445;-73
2022/11/05 12:11:59;;;;;;;5.63;0.70;;;;;;;20.70;46.83;101190.56;4991430;28;20433;-71